Time;durP1;ratioP1;P1;durP2;ratioP2;P2;SDS_P1;SDS_P2;PMS_P1;PMS_P2;Temp;Humidity;BMP_temperature;BMP_pressure;BME280_temperature;BME280_humidity;BME280_pressure;Samples;Min_cycle;Max_cycle;Signal;HPM_P1;HPM_P2
2023/09/27 00:41:12;;;;;;;15.50;14.10;;;19.30;99.90;;;;;;5057935;28;20461;-84
2023/09/27 00:57:23;;;;;;;17.30;15.70;;;19.20;99.90;;;;;;5096299;23;20819;-83
2023/09/27 01:16:54;;;;;;;19.33;17.37;;;19.20;99.90;;;;;;5216236;22;20564;-84
2023/09/27 01:51:29;;;;;;;20.27;18.17;;;19.00;99.90;;;;;;5078030;28;20430;-83
2023/09/27 01:57:45;;;;;;;17.60;16.00;;;19.00;99.90;;;;;;4867437;29;20483;-83
2023/09/27 02:19:58;;;;;;;19.77;17.80;;;18.80;99.90;;;;;;5092842;28;20456;-83
2023/09/27 02:26:28;;;;;;;20.00;18.17;;;18.80;99.90;;;;;;5063036;22;20521;-84
2023/09/27 03:33:09;;;;;;;21.27;19.07;;;18.60;99.90;;;;;;4855118;29;20470;-84
2023/09/27 03:59:26;;;;;;;19.17;17.37;;;18.40;99.90;;;;;;5461925;23;20486;-83
2023/09/27 04:20:51;;;;;;;19.40;17.70;;;18.40;99.90;;;;;;4716570;30;20532;-84
2023/09/27 04:31:24;;;;;;;23.47;21.37;;;18.40;99.90;;;;;;4774381;30;20499;-82
2023/09/27 04:34:33;;;;;;;20.97;18.87;;;18.40;99.90;;;;;;4782133;29;20972;-82
2023/09/27 05:31:21;;;;;;;21.40;19.17;;;18.40;99.90;;;;;;4873436;29;20752;-84
2023/09/27 06:00:52;;;;;;;18.87;16.97;;;18.40;99.90;;;;;;4921719;29;20601;-83
2023/09/27 06:43:44;;;;;;;19.30;17.40;;;18.60;99.90;;;;;;4994238;28;20487;-81
2023/09/27 06:54:27;;;;;;;;;;;;;;;;;;;;;
2023/09/27 06:57:23;;;;;;;;;;;;;;;;;;;;;
2023/09/27 07:10:59;;;;;;;;;;;;;;;;;;;;;
2023/09/27 07:20:52;;;;;;;19.87;17.50;;;19.10;99.90;;;;;;4824101;29;20470;-83
2023/09/27 07:23:29;;;;;;;19.20;17.40;;;19.10;99.90;;;;;;4866289;29;20472;-84
2023/09/27 07:25:58;;;;;;;19.73;17.93;;;19.10;99.90;;;;;;4948846;28;21017;-83
2023/09/27 07:28:25;;;;;;;20.23;18.17;;;19.20;99.90;;;;;;4979662;28;20524;-82
2023/09/27 07:30:55;;;;;;;19.20;17.40;;;19.20;99.90;;;;;;5012254;28;20530;-83
2023/09/27 07:33:22;;;;;;;22.23;19.97;;;19.30;99.90;;;;;;5032399;28;20499;-82
2023/09/27 07:35:52;;;;;;;21.23;19.23;;;19.30;99.90;;;;;;5032341;28;20483;-82
2023/09/27 07:38:19;;;;;;;20.67;18.73;;;19.40;99.90;;;;;;5032194;28;20868;-82
2023/09/27 07:40:50;;;;;;;21.63;19.43;;;19.40;99.90;;;;;;5033267;28;20460;-82
2023/09/27 07:43:18;;;;;;;19.60;17.60;;;19.50;99.90;;;;;;5032269;28;20876;-81
2023/09/27 07:45:47;;;;;;;20.97;19.07;;;19.50;99.90;;;;;;5032640;28;20464;-81
2023/09/27 07:48:14;;;;;;;20.47;18.47;;;19.50;99.90;;;;;;5032136;28;20478;-82
2023/09/27 07:50:41;;;;;;;19.53;17.80;;;19.60;99.90;;;;;;5033075;28;20472;-81
2023/09/27 07:53:09;;;;;;;21.33;19.13;;;19.60;99.90;;;;;;5032364;28;20541;-83
2023/09/27 07:55:46;;;;;;;20.60;18.80;;;19.70;99.90;;;;;;5032612;28;20483;-83
2023/09/27 07:58:16;;;;;;;26.93;23.93;;;19.70;99.90;;;;;;5032220;28;20460;-83
2023/09/27 08:00:45;;;;;;;23.10;20.97;;;19.80;99.90;;;;;;5033128;28;20504;-82
2023/09/27 08:03:21;;;;;;;21.60;19.60;;;19.80;99.90;;;;;;5033094;28;20495;-83
2023/09/27 08:05:50;;;;;;;19.37;17.67;;;19.90;99.90;;;;;;5034407;28;20472;-83
2023/09/27 08:08:21;;;;;;;24.07;21.13;;;19.90;99.90;;;;;;5033379;28;20479;-83
2023/09/27 08:10:49;;;;;;;21.70;19.67;;;20.00;99.90;;;;;;5033804;28;20594;-83
2023/09/27 08:13:19;;;;;;;24.07;21.37;;;20.00;99.90;;;;;;5034417;28;20472;-83
2023/09/27 08:15:50;;;;;;;24.13;21.57;;;20.00;99.90;;;;;;5035799;28;20483;-83
2023/09/27 08:18:17;;;;;;;23.20;21.17;;;20.10;99.90;;;;;;5032969;28;20479;-82
2023/09/27 08:20:44;;;;;;;22.40;20.40;;;20.10;99.90;;;;;;5032760;28;20488;-83
2023/09/27 08:23:12;;;;;;;22.00;19.80;;;20.20;99.90;;;;;;5031936;28;20472;-83
2023/09/27 08:25:40;;;;;;;22.57;20.57;;;20.20;99.90;;;;;;5034479;28;20507;-82
2023/09/27 08:28:09;;;;;;;23.80;21.63;;;20.30;99.90;;;;;;5036965;28;20468;-83
2023/09/27 08:30:36;;;;;;;24.80;22.50;;;20.30;99.90;;;;;;5036572;28;20456;-84
2023/09/27 08:33:05;;;;;;;24.70;22.30;;;20.30;99.90;;;;;;5039208;28;20468;-83
2023/09/27 08:35:32;;;;;;;27.53;24.83;;;20.40;99.90;;;;;;5036841;28;20518;-83
2023/09/27 08:37:59;;;;;;;27.57;24.87;;;20.40;99.90;;;;;;5036458;28;20861;-84
2023/09/27 08:40:29;;;;;;;26.00;23.50;;;20.50;99.90;;;;;;5025397;28;20876;-83
2023/09/27 08:45:44;;;;;;;24.10;21.80;;;20.60;99.90;;;;;;5032585;28;20556;-83
2023/09/27 08:48:18;;;;;;;25.83;23.50;;;20.60;99.90;;;;;;5035915;28;20517;-82
2023/09/27 08:50:45;;;;;;;23.83;21.80;;;20.70;99.90;;;;;;5035211;28;20458;-82
2023/09/27 08:53:15;;;;;;;24.10;21.83;;;20.70;99.90;;;;;;5035605;28;20464;-83
2023/09/27 08:55:47;;;;;;;23.97;21.77;;;20.70;99.90;;;;;;5015122;28;20587;-82
2023/09/27 08:58:16;;;;;;;23.03;20.93;;;20.80;99.90;;;;;;5034985;28;20534;-82
2023/09/27 09:00:46;;;;;;;24.90;22.37;;;20.90;99.90;;;;;;5034770;28;20479;-83
2023/09/27 09:03:19;;;;;;;21.93;19.93;;;20.90;99.90;;;;;;5035671;28;20560;-83
2023/09/27 09:05:48;;;;;;;21.63;19.53;;;20.90;99.90;;;;;;5034815;28;20791;-83
2023/09/27 09:08:15;;;;;;;21.73;19.87;;;21.00;99.90;;;;;;5035328;28;20560;-84
2023/09/27 09:10:49;;;;;;;22.83;20.67;;;21.00;99.90;;;;;;5034628;28;20530;-84
2023/09/27 09:13:21;;;;;;;25.43;23.13;;;21.10;99.90;;;;;;5035539;28;20490;-82
2023/09/27 09:15:49;;;;;;;22.93;20.80;;;21.10;99.90;;;;;;5034130;28;20522;-82
2023/09/27 09:18:31;;;;;;;22.53;20.40;;;21.20;99.90;;;;;;5035204;28;20476;-83
2023/09/27 09:21:08;;;;;;;24.13;21.57;;;21.20;99.90;;;;;;5034603;28;20464;-82
2023/09/27 09:23:36;;;;;;;23.03;20.83;;;21.30;99.90;;;;;;5034804;28;20478;-83
2023/09/27 09:26:05;;;;;;;27.80;24.57;;;21.30;99.90;;;;;;5035003;28;20475;-82
2023/09/27 09:28:32;;;;;;;25.70;23.37;;;21.40;99.90;;;;;;5035051;28;20815;-82
2023/09/27 09:30:59;;;;;;;25.67;23.33;;;21.40;99.90;;;;;;5034384;28;20547;-82
2023/09/27 09:33:39;;;;;;;24.40;22.03;;;21.40;99.90;;;;;;5035099;28;20476;-82
2023/09/27 09:36:07;;;;;;;24.50;22.20;;;21.40;99.90;;;;;;5017352;28;20465;-82
2023/09/27 09:38:36;;;;;;;23.43;21.17;;;21.50;99.90;;;;;;5025482;28;20567;-83
2023/09/27 09:41:03;;;;;;;22.43;20.23;;;21.50;99.90;;;;;;5024512;28;20869;-83
2023/09/27 09:43:41;;;;;;;22.70;20.57;;;21.60;99.90;;;;;;5010113;28;20472;-83
2023/09/27 09:46:29;;;;;;;21.70;19.67;;;21.60;99.90;;;;;;5033910;28;20820;-83
2023/09/27 09:49:04;;;;;;;23.07;20.87;;;21.60;99.90;;;;;;5033007;28;20469;-82
2023/09/27 09:51:37;;;;;;;20.93;19.07;;;21.60;99.90;;;;;;5005160;28;20464;-83
2023/09/27 09:54:08;;;;;;;21.53;19.50;;;21.70;99.90;;;;;;5026319;28;20802;-83
2023/09/27 09:56:47;;;;;;;20.23;18.47;;;21.70;99.90;;;;;;5033390;28;20966;-82
2023/09/27 09:59:18;;;;;;;20.50;18.30;;;21.70;99.90;;;;;;5025374;28;20945;-83
2023/09/27 10:01:47;;;;;;;22.17;19.93;;;21.80;99.90;;;;;;5033791;28;20468;-83
2023/09/27 10:04:33;;;;;;;19.93;18.00;;;21.80;99.90;;;;;;5026481;28;20499;-84
2023/09/27 10:07:02;;;;;;;21.10;19.20;;;21.80;99.90;;;;;;5012009;28;20468;-84
2023/09/27 10:09:34;;;;;;;22.23;20.13;;;21.90;99.90;;;;;;5023200;28;20967;-82
2023/09/27 10:12:02;;;;;;;17.33;14.03;;;21.90;99.90;;;;;;4992256;28;20481;-84
2023/09/27 10:14:30;;;;;;;19.33;17.53;;;22.00;99.90;;;;;;5014698;28;20539;-84
2023/09/27 10:16:57;;;;;;;18.83;17.23;;;22.00;99.90;;;;;;5014334;28;20503;-84
2023/09/27 10:19:28;;;;;;;13.47;12.07;;;22.00;99.90;;;;;;5014053;28;20918;-84
2023/09/27 10:22:08;;;;;;;14.80;13.30;;;22.10;99.90;;;;;;5028582;28;20472;-85
2023/09/27 10:24:36;;;;;;;18.03;16.30;;;22.20;99.90;;;;;;5033738;28;20471;-84
2023/09/27 10:27:03;;;;;;;19.37;17.50;;;22.30;99.90;;;;;;5033956;28;20499;-84
2023/09/27 10:29:53;;;;;;;16.90;15.30;;;22.30;99.90;;;;;;5034047;28;20968;-83
2023/09/27 10:32:19;;;;;;;17.43;15.73;;;22.40;99.90;;;;;;5037619;28;20534;-83
2023/09/27 10:34:46;;;;;;;14.57;13.10;;;22.50;99.90;;;;;;5041449;28;20935;-83
2023/09/27 10:37:15;;;;;;;13.20;11.90;;;22.50;99.90;;;;;;5017664;28;20470;-83
2023/09/27 10:39:42;;;;;;;12.77;11.47;;;22.50;99.90;;;;;;5015957;28;20460;-82
2023/09/27 10:42:09;;;;;;;12.00;10.37;;;22.60;99.90;;;;;;5025893;28;20492;-82
2023/09/27 10:44:41;;;;;;;14.83;13.43;;;22.70;99.90;;;;;;5033154;28;20849;-82
2023/09/27 10:47:08;;;;;;;14.20;13.00;;;22.80;99.90;;;;;;5033301;28;20518;-82
2023/09/27 10:49:43;;;;;;;16.60;15.00;;;22.90;99.90;;;;;;5033519;28;20499;-83
2023/09/27 10:55:10;;;;;;;10.60;9.60;;;23.10;99.90;;;;;;4964595;28;20485;-84
2023/09/27 10:57:37;;;;;;;12.97;11.77;;;23.10;99.90;;;;;;5010102;28;20464;-83
2023/09/27 11:00:10;;;;;;;16.00;14.50;;;23.20;99.90;;;;;;5028470;28;21024;-83
2023/09/27 11:02:41;;;;;;;15.70;14.13;;;23.20;99.90;;;;;;5032957;28;20456;-83
2023/09/27 11:05:09;;;;;;;10.50;9.43;;;23.30;99.90;;;;;;5012976;28;20512;-83
2023/09/27 11:07:58;;;;;;;14.23;13.00;;;23.30;99.90;;;;;;4995153;28;20556;-83
2023/09/27 11:10:38;;;;;;;14.97;13.67;;;23.40;99.90;;;;;;5012090;28;20469;-83
2023/09/27 11:13:07;;;;;;;14.90;13.50;;;23.40;99.90;;;;;;5006401;28;20476;-83
2023/09/27 11:15:34;;;;;;;12.93;11.63;;;23.40;99.90;;;;;;5031811;28;20828;-84
2023/09/27 11:18:04;;;;;;;10.50;9.40;;;23.40;99.90;;;;;;5032889;28;20475;-82
2023/09/27 11:20:34;;;;;;;14.93;13.43;;;23.40;99.90;;;;;;5022373;28;20468;-83
2023/09/27 11:23:16;;;;;;;14.10;12.90;;;23.40;99.90;;;;;;5009247;28;20542;-83
2023/09/27 11:25:45;;;;;;;17.57;15.83;;;23.50;99.90;;;;;;5030454;28;20483;-83
2023/09/27 11:28:28;;;;;;;11.03;9.83;;;23.50;99.90;;;;;;5032822;28;20480;-83
2023/09/27 11:31:03;;;;;;;9.50;8.63;;;23.50;99.90;;;;;;5020210;28;20850;-83
2023/09/27 11:33:33;;;;;;;11.53;9.73;;;23.60;99.90;;;;;;5004473;28;20468;-83
2023/09/27 11:36:06;;;;;;;10.80;8.00;;;23.60;99.90;;;;;;5012172;28;20475;-84
2023/09/27 11:38:35;;;;;;;11.67;10.50;;;23.70;99.90;;;;;;5013283;28;20484;-84
2023/09/27 11:41:07;;;;;;;11.50;10.50;;;23.70;99.90;;;;;;5029891;28;20441;-84
2023/09/27 11:43:34;;;;;;;14.77;13.43;;;23.80;99.90;;;;;;5033218;28;20476;-83
2023/09/27 11:46:03;;;;;;;15.20;13.73;;;23.80;99.90;;;;;;5032815;28;21051;-83
2023/09/27 11:48:34;;;;;;;14.77;13.37;;;23.80;99.90;;;;;;5019120;28;20812;-84
2023/09/27 11:51:02;;;;;;;15.50;13.83;;;23.80;99.90;;;;;;5012835;28;20557;-84
2023/09/27 11:53:30;;;;;;;12.47;11.37;;;23.80;99.90;;;;;;5004595;28;20923;-84
2023/09/27 11:56:01;;;;;;;11.17;10.17;;;23.80;99.90;;;;;;5032371;28;20468;-83
2023/09/27 11:58:33;;;;;;;13.23;11.97;;;23.70;99.90;;;;;;5032424;28;20554;-82
2023/09/27 12:01:02;;;;;;;11.53;10.43;;;23.70;99.90;;;;;;5035506;28;20472;-83
2023/09/27 12:03:29;;;;;;;11.97;10.97;;;23.70;99.90;;;;;;5035078;28;20983;-83
2023/09/27 12:05:56;;;;;;;14.50;13.20;;;23.70;99.90;;;;;;5026511;28;20483;-84
2023/09/27 12:08:23;;;;;;;15.90;14.50;;;23.60;99.90;;;;;;5036694;28;20810;-85
2023/09/27 12:10:51;;;;;;;15.93;14.43;;;23.60;99.90;;;;;;5026735;28;20472;-84
2023/09/27 12:13:20;;;;;;;12.80;11.80;;;23.60;99.90;;;;;;5036875;28;20471;-85
2023/09/27 12:15:48;;;;;;;15.40;13.83;;;23.50;99.90;;;;;;5035995;28;20478;-85
2023/09/27 12:18:17;;;;;;;15.67;14.17;;;23.50;99.90;;;;;;5035733;28;20503;-84
2023/09/27 12:21:03;;;;;;;12.37;11.27;;;23.50;99.90;;;;;;5030551;28;20526;-84
2023/09/27 12:23:31;;;;;;;13.87;12.67;;;23.50;99.90;;;;;;5038187;28;20467;-84
2023/09/27 12:25:58;;;;;;;16.83;15.10;;;23.50;99.90;;;;;;5026782;28;20483;-83
2023/09/27 12:28:27;;;;;;;10.60;9.70;;;23.50;99.90;;;;;;5043668;28;20464;-82
2023/09/27 12:31:10;;;;;;;;;;;;;;;;;;;;;
2023/09/27 12:33:48;;;;;;;10.10;9.30;;;23.50;99.90;;;;;;5029774;28;20482;-81
2023/09/27 12:36:16;;;;;;;12.57;9.67;;;23.60;99.90;;;;;;5028557;28;20518;-82
2023/09/27 12:38:44;;;;;;;11.97;10.77;;;23.60;99.90;;;;;;5017716;28;20472;-82
2023/09/27 12:41:12;;;;;;;11.47;10.37;;;23.60;99.90;;;;;;5017047;28;20557;-81
2023/09/27 12:43:41;;;;;;;11.73;10.70;;;23.70;99.90;;;;;;5005001;28;20574;-81
2023/09/27 12:46:09;;;;;;;11.20;10.10;;;23.70;99.90;;;;;;5022005;28;20472;-82
2023/09/27 12:48:36;;;;;;;10.57;9.57;;;23.70;99.90;;;;;;5026793;28;20472;-81
2023/09/27 12:51:03;;;;;;;11.20;10.27;;;23.70;99.90;;;;;;5022000;28;20535;-83
2023/09/27 12:53:30;;;;;;;10.03;9.23;;;23.70;99.90;;;;;;5025152;28;20864;-83
2023/09/27 12:55:57;;;;;;;9.03;8.23;;;23.70;99.90;;;;;;5033788;28;20467;-83
2023/09/27 12:58:24;;;;;;;10.87;10.07;;;23.70;99.90;;;;;;5030788;28;20864;-82
2023/09/27 13:00:55;;;;;;;11.60;10.50;;;23.70;99.90;;;;;;5019670;28;20473;-82
2023/09/27 13:03:24;;;;;;;12.13;10.80;;;23.70;99.90;;;;;;5031820;28;20962;-82
2023/09/27 13:05:51;;;;;;;11.93;10.73;;;23.80;99.90;;;;;;5021453;28;20482;-83
2023/09/27 13:08:18;;;;;;;10.17;9.37;;;23.80;99.90;;;;;;5033494;28;20468;-83
2023/09/27 13:10:45;;;;;;;10.07;9.20;;;23.70;99.90;;;;;;5021172;28;20485;-83
2023/09/27 13:13:17;;;;;;;9.97;8.97;;;23.80;99.90;;;;;;5031221;28;20495;-83
2023/09/27 13:15:43;;;;;;;11.50;10.40;;;23.80;99.90;;;;;;5034087;28;20487;-83
2023/09/27 13:18:12;;;;;;;12.00;10.87;;;23.80;99.90;;;;;;5032541;28;20464;-83
2023/09/27 13:20:39;;;;;;;16.40;14.83;;;23.80;99.90;;;;;;5034942;28;20464;-83
2023/09/27 13:23:09;;;;;;;14.00;12.70;;;23.80;99.90;;;;;;5032949;28;20475;-83
2023/09/27 13:25:36;;;;;;;11.57;10.40;;;23.80;99.90;;;;;;5028334;28;20487;-83
2023/09/27 13:28:03;;;;;;;24.03;20.43;;;23.70;99.90;;;;;;5028598;28;20543;-83
2023/09/27 13:30:31;;;;;;;13.20;11.90;;;23.80;99.90;;;;;;5027067;28;20476;-82
2023/09/27 13:33:09;;;;;;;14.40;12.93;;;23.80;99.90;;;;;;5033985;28;20478;-83
2023/09/27 13:35:42;;;;;;;12.70;11.60;;;23.90;99.90;;;;;;5022968;28;21149;-83
2023/09/27 13:38:17;;;;;;;15.77;14.47;;;23.90;99.90;;;;;;5022087;28;20522;-83
2023/09/27 13:40:49;;;;;;;12.50;11.40;;;23.90;99.90;;;;;;5032542;28;20902;-83
2023/09/27 13:43:31;;;;;;;16.70;14.90;;;23.90;99.90;;;;;;5030325;28;20477;-83
2023/09/27 13:46:05;;;;;;;12.10;10.80;;;23.90;99.90;;;;;;5003784;28;20492;-84
2023/09/27 13:48:34;;;;;;;19.67;17.63;;;23.90;99.90;;;;;;5015748;28;20519;-84
2023/09/27 13:51:02;;;;;;;18.73;16.93;;;24.00;99.90;;;;;;5032103;28;20468;-85
2023/09/27 13:53:29;;;;;;;19.63;17.80;;;24.00;99.90;;;;;;5032289;28;20555;-85
2023/09/27 13:55:56;;;;;;;14.97;13.47;;;24.00;99.90;;;;;;5026312;28;20481;-85
2023/09/27 13:58:23;;;;;;;16.83;15.17;;;24.00;99.90;;;;;;5023946;28;20480;-84
2023/09/27 14:00:51;;;;;;;19.53;17.63;;;24.00;99.90;;;;;;5034857;28;20970;-83
2023/09/27 14:03:23;;;;;;;13.97;12.67;;;24.00;99.90;;;;;;5033919;28;20476;-82
2023/09/27 14:05:51;;;;;;;16.07;14.47;;;24.00;99.90;;;;;;5027802;28;20479;-82
2023/09/27 14:08:22;;;;;;;16.13;14.43;;;24.00;99.90;;;;;;5023818;28;20485;-83
2023/09/27 14:11:04;;;;;;;14.77;13.27;;;23.90;99.90;;;;;;5026588;28;20978;-82
2023/09/27 14:13:31;;;;;;;13.10;11.90;;;23.90;99.90;;;;;;5029772;28;20459;-82
2023/09/27 14:15:58;;;;;;;13.13;11.97;;;23.90;99.90;;;;;;5029452;28;20479;-82
2023/09/27 14:18:25;;;;;;;14.43;12.67;;;23.80;99.90;;;;;;5033328;28;20969;-82
2023/09/27 14:20:52;;;;;;;11.10;10.00;;;23.80;99.90;;;;;;5032581;28;20488;-82
2023/09/27 14:23:21;;;;;;;13.97;12.60;;;23.80;99.90;;;;;;5033414;28;20464;-82
2023/09/27 14:25:48;;;;;;;11.30;10.27;;;23.80;99.90;;;;;;5052576;22;20570;-84
2023/09/27 14:28:18;;;;;;;12.93;11.83;;;23.80;99.90;;;;;;5031647;28;20526;-83
2023/09/27 14:30:46;;;;;;;13.30;10.93;;;23.80;99.90;;;;;;5029897;28;20495;-84
2023/09/27 14:33:13;;;;;;;17.70;11.53;;;23.80;99.90;;;;;;5031693;28;20511;-83
2023/09/27 14:35:40;;;;;;;10.67;9.60;;;23.80;99.90;;;;;;5046177;28;20477;-84
2023/09/27 14:38:08;;;;;;;11.00;9.90;;;23.80;99.90;;;;;;5049608;28;20477;-83
2023/09/27 14:40:39;;;;;;;12.07;10.83;;;23.80;99.90;;;;;;5050210;28;20471;-83
2023/09/27 14:43:09;;;;;;;14.80;11.70;;;23.90;99.90;;;;;;5036450;28;20470;-84
2023/09/27 14:45:37;;;;;;;13.50;12.30;;;23.80;99.90;;;;;;5050126;28;20537;-84
2023/09/27 14:48:05;;;;;;;11.60;10.53;;;23.80;99.90;;;;;;5052154;28;20476;-82
2023/09/27 14:50:35;;;;;;;11.93;10.93;;;23.80;99.90;;;;;;5041302;28;20476;-82
2023/09/27 14:53:02;;;;;;;13.33;12.03;;;23.80;99.90;;;;;;5031995;28;20488;-82
2023/09/27 14:55:30;;;;;;;13.30;12.00;;;23.80;99.90;;;;;;5051481;28;20479;-82
2023/09/27 14:58:02;;;;;;;14.93;13.60;;;23.90;99.90;;;;;;5053913;28;20471;-82
2023/09/27 15:00:33;;;;;;;13.00;11.70;;;23.90;99.90;;;;;;5048412;28;20479;-83
2023/09/27 15:03:01;;;;;;;13.60;12.37;;;23.80;99.90;;;;;;5052190;28;21223;-84
2023/09/27 15:05:30;;;;;;;11.27;10.20;;;23.80;99.90;;;;;;5051882;28;20467;-85
2023/09/27 15:07:59;;;;;;;11.27;10.27;;;23.70;99.90;;;;;;5047068;28;20457;-83
2023/09/27 15:10:28;;;;;;;11.57;10.50;;;23.60;99.90;;;;;;5051752;28;20500;-83
2023/09/27 15:12:55;;;;;;;13.00;11.23;;;23.60;99.90;;;;;;5050924;28;20482;-83
2023/09/27 15:15:24;;;;;;;11.50;10.37;;;23.50;99.90;;;;;;5028351;28;20504;-82
2023/09/27 15:17:51;;;;;;;13.20;12.10;;;23.50;99.90;;;;;;5039965;28;20468;-83
2023/09/27 15:20:21;;;;;;;12.20;11.10;;;23.40;99.90;;;;;;5042324;28;20456;-84
2023/09/27 15:22:48;;;;;;;12.57;11.33;;;23.30;99.90;;;;;;5047663;28;20521;-83
2023/09/27 15:25:15;;;;;;;11.67;10.67;;;23.20;99.90;;;;;;5048032;28;20480;-83
2023/09/27 15:27:47;;;;;;;10.73;9.33;;;23.20;99.90;;;;;;5057100;28;20474;-84
2023/09/27 15:30:15;;;;;;;13.93;12.70;;;23.10;99.90;;;;;;5038284;28;20494;-83
2023/09/27 15:32:49;;;;;;;17.23;13.83;;;23.00;99.90;;;;;;5034719;28;20502;-82
2023/09/27 15:35:16;;;;;;;15.23;13.80;;;22.90;99.90;;;;;;5166229;23;20492;-84
2023/09/27 15:37:52;;;;;;;13.23;11.73;;;22.90;99.90;;;;;;5033126;28;20522;-85
2023/09/27 15:40:19;;;;;;;11.73;10.60;;;22.80;99.90;;;;;;5030916;28;20471;-82
2023/09/27 15:42:50;;;;;;;12.33;11.33;;;22.70;99.90;;;;;;5021775;28;20487;-83
2023/09/27 15:45:24;;;;;;;13.07;11.90;;;22.70;99.90;;;;;;5184081;23;20471;-81
2023/09/27 15:47:53;;;;;;;13.17;11.93;;;22.60;99.90;;;;;;5042956;28;20507;-82
2023/09/27 15:50:20;;;;;;;14.23;12.93;;;22.60;99.90;;;;;;5052480;28;20976;-82
2023/09/27 15:52:52;;;;;;;15.77;14.30;;;22.50;99.90;;;;;;5051863;28;20869;-81
2023/09/27 15:55:19;;;;;;;15.53;14.20;;;22.50;99.90;;;;;;5047313;28;20467;-82
2023/09/27 15:57:47;;;;;;;15.83;14.23;;;22.40;99.90;;;;;;5051603;28;20463;-82
2023/09/27 16:00:47;;;;;;;18.63;17.03;;;22.40;99.90;;;;;;5031625;28;20538;-84
2023/09/27 16:03:17;;;;;;;20.80;17.43;;;22.40;99.90;;;;;;5048721;28;20458;-84
2023/09/27 16:05:47;;;;;;;20.10;18.13;;;22.30;99.90;;;;;;5043338;28;20472;-81
2023/09/27 16:08:16;;;;;;;20.97;19.07;;;22.30;99.90;;;;;;5044313;28;20550;-84
2023/09/27 16:10:46;;;;;;;21.20;19.10;;;22.30;99.90;;;;;;5033166;28;20817;-81
2023/09/27 16:13:16;;;;;;;19.80;17.73;;;22.30;99.90;;;;;;5044873;28;20477;-80
2023/09/27 16:15:46;;;;;;;22.57;20.37;;;22.30;99.90;;;;;;5033689;28;20472;-81
2023/09/27 16:18:13;;;;;;;22.80;20.60;;;22.20;99.90;;;;;;5032105;28;20472;-83
2023/09/27 16:20:44;;;;;;;23.07;20.83;;;22.20;99.90;;;;;;5042976;28;20962;-83
2023/09/27 16:23:12;;;;;;;22.87;20.47;;;22.20;99.90;;;;;;5033988;28;20472;-80
2023/09/27 16:25:40;;;;;;;22.10;20.00;;;22.20;99.90;;;;;;5032680;28;20548;-81
2023/09/27 16:28:13;;;;;;;22.37;20.00;;;22.20;99.90;;;;;;5033423;28;20464;-81
2023/09/27 16:30:40;;;;;;;21.97;19.83;;;22.20;99.90;;;;;;5033004;28;20563;-80
2023/09/27 16:33:09;;;;;;;22.40;20.20;;;22.10;99.90;;;;;;5033931;28;20464;-80
2023/09/27 16:35:39;;;;;;;22.10;20.10;;;22.10;99.90;;;;;;5032084;28;20468;-81
2023/09/27 16:38:13;;;;;;;22.50;20.30;;;22.10;99.90;;;;;;5043947;28;20483;-79
2023/09/27 16:40:40;;;;;;;24.53;22.20;;;22.10;99.90;;;;;;5033532;28;20475;-80
2023/09/27 16:43:10;;;;;;;23.80;21.53;;;22.10;99.90;;;;;;5032929;28;20517;-81
2023/09/27 16:45:38;;;;;;;23.77;21.40;;;22.10;99.90;;;;;;5022898;28;20488;-80
2023/09/27 16:48:05;;;;;;;24.97;22.50;;;22.10;99.90;;;;;;5034695;28;20533;-81
2023/09/27 16:50:32;;;;;;;24.47;22.17;;;22.10;99.90;;;;;;5036024;28;20476;-80
2023/09/27 16:53:01;;;;;;;22.77;20.67;;;22.10;99.90;;;;;;5035305;28;20547;-81
2023/09/27 16:55:29;;;;;;;23.93;21.80;;;22.00;99.90;;;;;;5036000;28;20463;-80
2023/09/27 16:57:56;;;;;;;26.20;23.47;;;22.00;99.90;;;;;;5036802;28;20556;-84
2023/09/27 17:00:23;;;;;;;44.23;39.67;;;22.00;99.90;;;;;;5044339;28;20483;-83
2023/09/27 17:02:50;;;;;;;39.80;35.83;;;22.00;99.90;;;;;;5047703;28;20534;-84
2023/09/27 17:05:21;;;;;;;46.20;41.67;;;22.00;99.90;;;;;;5055211;28;20471;-84
2023/09/27 17:07:48;;;;;;;45.20;40.60;;;22.00;99.90;;;;;;5056237;28;20712;-84
2023/09/27 17:10:15;;;;;;;47.43;42.70;;;21.90;99.90;;;;;;5055279;28;20528;-84
2023/09/27 17:12:47;;;;;;;44.93;40.47;;;21.90;99.90;;;;;;5045538;28;21015;-85
2023/09/27 17:15:15;;;;;;;42.50;38.10;;;21.90;99.90;;;;;;5056393;28;20475;-83
2023/09/27 17:17:42;;;;;;;44.63;40.03;;;21.80;99.90;;;;;;5030713;28;20665;-81
2023/09/27 17:20:10;;;;;;;42.60;38.70;;;21.80;99.90;;;;;;5037512;28;20468;-83
2023/09/27 17:22:38;;;;;;;41.43;37.53;;;21.80;99.90;;;;;;5045122;28;20473;-85
2023/09/27 17:25:11;;;;;;;38.90;35.30;;;21.80;99.90;;;;;;5057854;28;20957;-84
2023/09/27 17:28:19;;;;;;;34.83;31.63;;;21.80;99.90;;;;;;5030270;28;20469;-88
2023/09/27 17:30:59;;;;;;;34.40;31.27;;;21.70;99.90;;;;;;5015828;28;20465;-88
2023/09/27 17:33:33;;;;;;;34.27;30.87;;;21.70;99.90;;;;;;5036940;28;20502;-88
2023/09/27 17:36:18;;;;;;;29.57;26.90;;;21.70;99.90;;;;;;5022223;28;20472;-90
2023/09/27 17:39:00;;;;;;;29.07;26.33;;;21.60;99.90;;;;;;5044790;28;20468;-85
2023/09/27 17:41:28;;;;;;;29.77;27.03;;;21.60;99.90;;;;;;5037170;28;20538;-85
2023/09/27 17:44:02;;;;;;;29.43;26.63;;;21.60;99.90;;;;;;5036105;28;20476;-85
2023/09/27 17:46:33;;;;;;;32.07;29.17;;;21.50;99.90;;;;;;5036208;28;20962;-85
2023/09/27 17:49:04;;;;;;;31.27;28.47;;;21.50;99.90;;;;;;5036714;28;20480;-86
2023/09/27 17:51:32;;;;;;;32.13;29.10;;;21.50;99.90;;;;;;5037536;28;20469;-86
2023/09/27 17:54:08;;;;;;;33.47;30.43;;;21.50;99.90;;;;;;5008644;28;20527;-81
2023/09/27 17:56:36;;;;;;;31.60;28.90;;;21.50;99.90;;;;;;5010823;28;20472;-86
2023/09/27 17:59:10;;;;;;;32.90;29.97;;;21.40;99.90;;;;;;5026929;28;20809;-86
2023/09/27 18:01:39;;;;;;;33.47;30.17;;;21.40;99.90;;;;;;5036936;28;20470;-83
2023/09/27 18:04:11;;;;;;;33.80;30.80;;;21.40;99.90;;;;;;5034546;28;20460;-84
2023/09/27 18:06:38;;;;;;;33.27;30.20;;;21.40;99.90;;;;;;5035200;28;21029;-81
2023/09/27 18:09:06;;;;;;;33.63;30.23;;;21.40;99.90;;;;;;5034261;28;20472;-80
2023/09/27 18:11:48;;;;;;;32.83;29.63;;;21.30;99.90;;;;;;5034764;28;20468;-81
2023/09/27 18:14:17;;;;;;;32.13;29.23;;;21.30;99.90;;;;;;5039290;28;20469;-85
2023/09/27 18:16:45;;;;;;;32.87;29.87;;;21.30;99.90;;;;;;5034822;28;20468;-85
2023/09/27 18:19:13;;;;;;;34.00;30.67;;;21.30;99.90;;;;;;5037592;28;20525;-85
2023/09/27 18:21:41;;;;;;;35.53;32.33;;;21.30;99.90;;;;;;5016556;28;20974;-80
2023/09/27 18:24:11;;;;;;;35.00;31.90;;;21.30;99.90;;;;;;5032106;28;20463;-80
2023/09/27 18:26:39;;;;;;;33.63;30.30;;;21.30;99.90;;;;;;5034115;28;20476;-80
2023/09/27 18:29:08;;;;;;;32.87;29.77;;;21.20;99.90;;;;;;5032466;28;20459;-79
2023/09/27 18:31:41;;;;;;;34.40;31.13;;;21.20;99.90;;;;;;5034169;28;20472;-78
2023/09/27 18:34:11;;;;;;;32.53;29.53;;;21.20;99.90;;;;;;5032326;28;20824;-83
2023/09/27 18:36:40;;;;;;;39.03;35.23;;;21.20;99.90;;;;;;5022114;28;20514;-81
2023/09/27 18:39:12;;;;;;;40.03;36.07;;;21.10;99.90;;;;;;5031466;28;20476;-82
2023/09/27 18:41:41;;;;;;;38.37;34.57;;;21.10;99.90;;;;;;5035814;28;20519;-85
2023/09/27 18:44:17;;;;;;;41.50;37.33;;;21.10;99.90;;;;;;5042196;28;20523;-81
2023/09/27 18:46:47;;;;;;;39.67;35.97;;;21.10;99.90;;;;;;5053036;28;20521;-86
2023/09/27 18:49:16;;;;;;;39.67;35.87;;;21.00;99.90;;;;;;5054242;28;20805;-80
2023/09/27 18:51:44;;;;;;;36.87;33.43;;;21.10;99.90;;;;;;5053729;28;20463;-81
2023/09/27 18:54:12;;;;;;;41.67;37.77;;;21.10;99.90;;;;;;5053011;28;20475;-81
2023/09/27 18:56:40;;;;;;;38.17;34.30;;;21.00;99.90;;;;;;5043286;28;20989;-81
2023/09/27 18:59:08;;;;;;;40.53;36.43;;;21.10;99.90;;;;;;5037089;28;20561;-79
2023/09/27 19:01:36;;;;;;;35.23;31.60;;;21.00;99.90;;;;;;5042971;28;20468;-80
2023/09/27 19:04:14;;;;;;;36.50;32.70;;;21.00;99.90;;;;;;5023116;28;20483;-79
2023/09/27 19:06:42;;;;;;;34.90;31.60;;;21.10;99.90;;;;;;5048821;28;20466;-81
2023/09/27 19:09:11;;;;;;;35.37;32.17;;;21.10;99.90;;;;;;5053083;28;20463;-81
2023/09/27 19:11:40;;;;;;;35.67;32.27;;;21.10;99.90;;;;;;5053416;28;20567;-80
2023/09/27 19:14:08;;;;;;;37.87;34.30;;;21.10;99.90;;;;;;5053261;28;20521;-85
2023/09/27 19:16:40;;;;;;;37.87;34.13;;;21.10;99.90;;;;;;5053265;28;20463;-80
2023/09/27 19:19:15;;;;;;;35.00;31.60;;;21.10;99.90;;;;;;5047070;28;20525;-82
2023/09/27 19:21:44;;;;;;;38.70;35.30;;;21.10;99.90;;;;;;5036087;28;20792;-81
2023/09/27 19:24:16;;;;;;;35.63;32.30;;;21.10;99.90;;;;;;5043027;28;20494;-80
2023/09/27 19:26:44;;;;;;;34.77;31.10;;;21.10;99.90;;;;;;5043459;28;20601;-80
2023/09/27 19:29:13;;;;;;;36.70;33.10;;;21.00;99.90;;;;;;5023530;28;20846;-81